sensor_id;sensor_type;location;lat;lon;timestamp;P1;durP1;ratioP1;P2;durP2;ratioP2
20421;SDS011;10370;53.102;18.034;2023-03-01T00:03:54;233.40;;;68.23;;
20421;SDS011;10370;53.102;18.034;2023-03-01T00:09:24;207.33;;;61.57;;
20421;SDS011;10370;53.102;18.034;2023-03-01T00:14:55;240.83;;;69.97;;
20421;SDS011;10370;53.102;18.034;2023-03-01T00:20:31;202.37;;;62.27;;
20421;SDS011;10370;53.102;18.034;2023-03-01T00:26:12;217.83;;;64.10;;
20421;SDS011;10370;53.102;18.034;2023-03-01T00:31:36;212.40;;;67.50;;
20421;SDS011;10370;53.102;18.034;2023-03-01T00:37:01;176.17;;;57.47;;
20421;SDS011;10370;53.102;18.034;2023-03-01T00:42:34;154.53;;;52.00;;
20421;SDS011;10370;53.102;18.034;2023-03-01T00:48:04;156.57;;;51.10;;
20421;SDS011;10370;53.102;18.034;2023-03-01T00:53:37;162.90;;;52.10;;
20421;SDS011;10370;53.102;18.034;2023-03-01T00:59:02;150.60;;;51.90;;
20421;SDS011;10370;53.102;18.034;2023-03-01T01:04:25;136.70;;;48.20;;
20421;SDS011;10370;53.102;18.034;2023-03-01T01:10:00;144.70;;;49.70;;
20421;SDS011;10370;53.102;18.034;2023-03-01T01:15:26;149.47;;;50.27;;
20421;SDS011;10370;53.102;18.034;2023-03-01T01:21:35;141.50;;;50.07;;
20421;SDS011;10370;53.102;18.034;2023-03-01T01:27:00;149.90;;;49.80;;
20421;SDS011;10370;53.102;18.034;2023-03-01T01:32:25;152.13;;;50.10;;
20421;SDS011;10370;53.102;18.034;2023-03-01T01:38:06;152.50;;;51.90;;
20421;SDS011;10370;53.102;18.034;2023-03-01T01:55:08;144.97;;;48.63;;
20421;SDS011;10370;53.102;18.034;2023-03-01T02:00:38;136.20;;;49.97;;
20421;SDS011;10370;53.102;18.034;2023-03-01T02:06:04;137.83;;;51.00;;
20421;SDS011;10370;53.102;18.034;2023-03-01T02:11:44;128.80;;;47.67;;
20421;SDS011;10370;53.102;18.034;2023-03-01T02:30:02;148.67;;;51.93;;
20421;SDS011;10370;53.102;18.034;2023-03-01T02:35:46;140.90;;;52.97;;
20421;SDS011;10370;53.102;18.034;2023-03-01T02:41:21;155.47;;;54.17;;
20421;SDS011;10370;53.102;18.034;2023-03-01T02:46:57;149.13;;;53.80;;
20421;SDS011;10370;53.102;18.034;2023-03-01T02:58:34;137.70;;;50.23;;
20421;SDS011;10370;53.102;18.034;2023-03-01T03:04:20;131.73;;;50.20;;
20421;SDS011;10370;53.102;18.034;2023-03-01T03:09:49;148.57;;;53.47;;
20421;SDS011;10370;53.102;18.034;2023-03-01T03:15:51;154.93;;;55.10;;
20421;SDS011;10370;53.102;18.034;2023-03-01T03:21:29;138.33;;;48.70;;
20421;SDS011;10370;53.102;18.034;2023-03-01T03:27:10;128.90;;;47.07;;
20421;SDS011;10370;53.102;18.034;2023-03-01T03:32:33;132.43;;;47.83;;
20421;SDS011;10370;53.102;18.034;2023-03-01T03:38:04;132.10;;;47.27;;
20421;SDS011;10370;53.102;18.034;2023-03-01T03:43:52;130.47;;;44.93;;
20421;SDS011;10370;53.102;18.034;2023-03-01T03:49:40;117.20;;;42.57;;
20421;SDS011;10370;53.102;18.034;2023-03-01T03:55:18;111.27;;;41.17;;
20421;SDS011;10370;53.102;18.034;2023-03-01T04:00:43;102.67;;;37.70;;
20421;SDS011;10370;53.102;18.034;2023-03-01T04:06:08;99.97;;;36.40;;
20421;SDS011;10370;53.102;18.034;2023-03-01T04:11:31;115.57;;;40.23;;
20421;SDS011;10370;53.102;18.034;2023-03-01T04:17:03;89.37;;;32.93;;
20421;SDS011;10370;53.102;18.034;2023-03-01T04:22:31;83.63;;;31.40;;
20421;SDS011;10370;53.102;18.034;2023-03-01T04:27:55;81.90;;;32.87;;
20421;SDS011;10370;53.102;18.034;2023-03-01T04:33:19;94.73;;;34.13;;
20421;SDS011;10370;53.102;18.034;2023-03-01T04:38:44;101.77;;;38.77;;
20421;SDS011;10370;53.102;18.034;2023-03-01T04:44:10;97.67;;;38.37;;
20421;SDS011;10370;53.102;18.034;2023-03-01T04:49:35;91.57;;;37.13;;
20421;SDS011;10370;53.102;18.034;2023-03-01T04:55:13;81.57;;;32.43;;
20421;SDS011;10370;53.102;18.034;2023-03-01T05:00:34;88.77;;;30.77;;
20421;SDS011;10370;53.102;18.034;2023-03-01T05:07:00;92.07;;;32.47;;
20421;SDS011;10370;53.102;18.034;2023-03-01T05:12:47;87.37;;;31.93;;
20421;SDS011;10370;53.102;18.034;2023-03-01T05:18:11;87.67;;;32.93;;
20421;SDS011;10370;53.102;18.034;2023-03-01T05:23:37;93.47;;;33.03;;
20421;SDS011;10370;53.102;18.034;2023-03-01T05:29:02;88.97;;;31.47;;
20421;SDS011;10370;53.102;18.034;2023-03-01T05:34:37;81.23;;;31.40;;
20421;SDS011;10370;53.102;18.034;2023-03-01T05:40:03;80.97;;;30.57;;
20421;SDS011;10370;53.102;18.034;2023-03-01T05:45:39;78.00;;;30.07;;
20421;SDS011;10370;53.102;18.034;2023-03-01T05:51:17;79.93;;;28.23;;
20421;SDS011;10370;53.102;18.034;2023-03-01T05:56:44;82.47;;;29.13;;
20421;SDS011;10370;53.102;18.034;2023-03-01T06:02:10;79.87;;;30.13;;
20421;SDS011;10370;53.102;18.034;2023-03-01T06:07:45;81.13;;;29.50;;
20421;SDS011;10370;53.102;18.034;2023-03-01T06:13:08;74.07;;;29.00;;
20421;SDS011;10370;53.102;18.034;2023-03-01T06:18:35;79.57;;;27.97;;
20421;SDS011;10370;53.102;18.034;2023-03-01T06:24:00;85.30;;;30.93;;
20421;SDS011;10370;53.102;18.034;2023-03-01T06:29:30;77.53;;;29.17;;
20421;SDS011;10370;53.102;18.034;2023-03-01T06:40:52;75.53;;;26.87;;
20421;SDS011;10370;53.102;18.034;2023-03-01T06:46:18;73.67;;;29.93;;
20421;SDS011;10370;53.102;18.034;2023-03-01T06:51:39;76.57;;;29.50;;
20421;SDS011;10370;53.102;18.034;2023-03-01T06:57:01;87.73;;;31.20;;
20421;SDS011;10370;53.102;18.034;2023-03-01T07:02:24;89.40;;;31.80;;
20421;SDS011;10370;53.102;18.034;2023-03-01T07:07:46;86.43;;;31.70;;
20421;SDS011;10370;53.102;18.034;2023-03-01T07:13:09;82.60;;;33.33;;
20421;SDS011;10370;53.102;18.034;2023-03-01T07:18:34;78.30;;;31.13;;
20421;SDS011;10370;53.102;18.034;2023-03-01T07:23:56;76.30;;;31.07;;
20421;SDS011;10370;53.102;18.034;2023-03-01T07:29:20;78.07;;;32.03;;
20421;SDS011;10370;53.102;18.034;2023-03-01T07:34:41;86.70;;;40.20;;
20421;SDS011;10370;53.102;18.034;2023-03-01T07:40:08;76.10;;;30.90;;
20421;SDS011;10370;53.102;18.034;2023-03-01T07:45:34;66.50;;;26.87;;
20421;SDS011;10370;53.102;18.034;2023-03-01T07:51:00;64.50;;;26.67;;
20421;SDS011;10370;53.102;18.034;2023-03-01T07:56:27;66.67;;;25.03;;
20421;SDS011;10370;53.102;18.034;2023-03-01T08:01:49;56.67;;;24.10;;
20421;SDS011;10370;53.102;18.034;2023-03-01T08:07:12;50.43;;;22.70;;
20421;SDS011;10370;53.102;18.034;2023-03-01T08:12:38;51.17;;;21.77;;
20421;SDS011;10370;53.102;18.034;2023-03-01T08:18:01;50.57;;;20.07;;
20421;SDS011;10370;53.102;18.034;2023-03-01T08:23:25;42.33;;;19.07;;
20421;SDS011;10370;53.102;18.034;2023-03-01T08:28:46;38.03;;;14.67;;
20421;SDS011;10370;53.102;18.034;2023-03-01T08:34:11;29.27;;;12.17;;
20421;SDS011;10370;53.102;18.034;2023-03-01T08:39:38;24.63;;;11.50;;
20421;SDS011;10370;53.102;18.034;2023-03-01T08:45:00;27.97;;;12.10;;
20421;SDS011;10370;53.102;18.034;2023-03-01T08:50:21;28.33;;;12.33;;
20421;SDS011;10370;53.102;18.034;2023-03-01T08:55:47;29.83;;;12.57;;
20421;SDS011;10370;53.102;18.034;2023-03-01T09:01:10;34.23;;;13.80;;
20421;SDS011;10370;53.102;18.034;2023-03-01T09:06:33;28.77;;;13.80;;
20421;SDS011;10370;53.102;18.034;2023-03-01T09:12:02;32.90;;;13.87;;
20421;SDS011;10370;53.102;18.034;2023-03-01T09:17:24;38.40;;;14.90;;
20421;SDS011;10370;53.102;18.034;2023-03-01T09:22:51;39.33;;;15.63;;
20421;SDS011;10370;53.102;18.034;2023-03-01T09:28:15;36.07;;;15.50;;
20421;SDS011;10370;53.102;18.034;2023-03-01T09:33:49;40.97;;;16.90;;
20421;SDS011;10370;53.102;18.034;2023-03-01T09:39:16;42.40;;;17.70;;
20421;SDS011;10370;53.102;18.034;2023-03-01T09:44:47;36.53;;;16.83;;
20421;SDS011;10370;53.102;18.034;2023-03-01T09:50:11;34.03;;;16.23;;
20421;SDS011;10370;53.102;18.034;2023-03-01T09:55:43;38.33;;;17.10;;
20421;SDS011;10370;53.102;18.034;2023-03-01T10:12:54;32.57;;;15.13;;
20421;SDS011;10370;53.102;18.034;2023-03-01T10:18:22;37.57;;;15.93;;
20421;SDS011;10370;53.102;18.034;2023-03-01T10:23:50;42.87;;;17.30;;
20421;SDS011;10370;53.102;18.034;2023-03-01T10:29:14;41.97;;;17.00;;
20421;SDS011;10370;53.102;18.034;2023-03-01T10:34:38;38.40;;;17.60;;
20421;SDS011;10370;53.102;18.034;2023-03-01T10:40:04;39.23;;;18.50;;
20421;SDS011;10370;53.102;18.034;2023-03-01T10:56:19;41.70;;;17.30;;
20421;SDS011;10370;53.102;18.034;2023-03-01T11:01:46;37.53;;;17.83;;
20421;SDS011;10370;53.102;18.034;2023-03-01T11:07:47;35.77;;;18.13;;
20421;SDS011;10370;53.102;18.034;2023-03-01T11:13:18;37.50;;;17.63;;
20421;SDS011;10370;53.102;18.034;2023-03-01T11:18:42;37.73;;;17.17;;
20421;SDS011;10370;53.102;18.034;2023-03-01T11:24:17;39.23;;;17.27;;
20421;SDS011;10370;53.102;18.034;2023-03-01T11:29:48;34.13;;;15.63;;
20421;SDS011;10370;53.102;18.034;2023-03-01T11:35:37;32.83;;;16.40;;
20421;SDS011;10370;53.102;18.034;2023-03-01T11:41:17;39.73;;;17.13;;
20421;SDS011;10370;53.102;18.034;2023-03-01T11:58:31;24.17;;;11.80;;
20421;SDS011;10370;53.102;18.034;2023-03-01T12:21:02;24.08;;;10.88;;
20421;SDS011;10370;53.102;18.034;2023-03-01T12:26:34;20.00;;;9.60;;
20421;SDS011;10370;53.102;18.034;2023-03-01T12:37:53;18.90;;;8.75;;
20421;SDS011;10370;53.102;18.034;2023-03-01T12:49:10;23.65;;;10.30;;
20421;SDS011;10370;53.102;18.034;2023-03-01T12:54:37;18.08;;;8.88;;
20421;SDS011;10370;53.102;18.034;2023-03-01T13:06:27;28.17;;;12.25;;
20421;SDS011;10370;53.102;18.034;2023-03-01T13:11:48;28.92;;;13.35;;
20421;SDS011;10370;53.102;18.034;2023-03-01T13:17:29;27.60;;;12.38;;
20421;SDS011;10370;53.102;18.034;2023-03-01T13:34:00;38.35;;;15.40;;
20421;SDS011;10370;53.102;18.034;2023-03-01T13:39:30;28.67;;;13.33;;
20421;SDS011;10370;53.102;18.034;2023-03-01T13:45:01;35.28;;;15.82;;
20421;SDS011;10370;53.102;18.034;2023-03-01T13:50:28;30.58;;;13.38;;
20421;SDS011;10370;53.102;18.034;2023-03-01T13:55:58;27.92;;;12.82;;
20421;SDS011;10370;53.102;18.034;2023-03-01T14:01:29;31.10;;;13.63;;
20421;SDS011;10370;53.102;18.034;2023-03-01T14:07:11;33.55;;;12.38;;
20421;SDS011;10370;53.102;18.034;2023-03-01T14:12:49;30.42;;;13.70;;
20421;SDS011;10370;53.102;18.034;2023-03-01T14:18:42;26.73;;;12.35;;
20421;SDS011;10370;53.102;18.034;2023-03-01T14:24:51;32.80;;;13.27;;
20421;SDS011;10370;53.102;18.034;2023-03-01T14:41:27;27.17;;;12.27;;
20421;SDS011;10370;53.102;18.034;2023-03-01T14:46:55;28.13;;;12.48;;
20421;SDS011;10370;53.102;18.034;2023-03-01T14:52:40;100.35;;;38.80;;
20421;SDS011;10370;53.102;18.034;2023-03-01T14:58:15;25.95;;;11.82;;
20421;SDS011;10370;53.102;18.034;2023-03-01T15:03:42;33.00;;;12.85;;
20421;SDS011;10370;53.102;18.034;2023-03-01T15:09:11;26.73;;;10.82;;
20421;SDS011;10370;53.102;18.034;2023-03-01T15:14:43;30.17;;;11.35;;
20421;SDS011;10370;53.102;18.034;2023-03-01T15:20:22;27.50;;;10.57;;
20421;SDS011;10370;53.102;18.034;2023-03-01T15:25:50;21.92;;;10.32;;
20421;SDS011;10370;53.102;18.034;2023-03-01T15:31:23;25.40;;;10.73;;
20421;SDS011;10370;53.102;18.034;2023-03-01T15:36:54;24.67;;;11.60;;
20421;SDS011;10370;53.102;18.034;2023-03-01T15:47:50;84.80;;;28.95;;
20421;SDS011;10370;53.102;18.034;2023-03-01T15:53:20;321.45;;;84.88;;
20421;SDS011;10370;53.102;18.034;2023-03-01T15:58:45;489.13;;;149.52;;
20421;SDS011;10370;53.102;18.034;2023-03-01T16:04:13;203.32;;;63.22;;
20421;SDS011;10370;53.102;18.034;2023-03-01T16:09:47;44.80;;;19.55;;
20421;SDS011;10370;53.102;18.034;2023-03-01T16:15:33;66.83;;;24.80;;
20421;SDS011;10370;53.102;18.034;2023-03-01T16:21:00;147.00;;;54.27;;
20421;SDS011;10370;53.102;18.034;2023-03-01T16:26:22;110.17;;;39.17;;
20421;SDS011;10370;53.102;18.034;2023-03-01T16:31:52;111.50;;;41.07;;
20421;SDS011;10370;53.102;18.034;2023-03-01T16:37:14;53.87;;;21.43;;
20421;SDS011;10370;53.102;18.034;2023-03-01T16:42:42;54.53;;;20.03;;
20421;SDS011;10370;53.102;18.034;2023-03-01T16:48:06;86.37;;;29.43;;
20421;SDS011;10370;53.102;18.034;2023-03-01T16:53:29;57.97;;;22.10;;
20421;SDS011;10370;53.102;18.034;2023-03-01T16:58:54;197.57;;;57.93;;
20421;SDS011;10370;53.102;18.034;2023-03-01T17:04:23;120.93;;;38.10;;
20421;SDS011;10370;53.102;18.034;2023-03-01T17:09:47;112.50;;;39.60;;
20421;SDS011;10370;53.102;18.034;2023-03-01T17:15:13;71.77;;;29.10;;
20421;SDS011;10370;53.102;18.034;2023-03-01T17:20:38;93.73;;;38.03;;
20421;SDS011;10370;53.102;18.034;2023-03-01T17:25:59;81.53;;;28.00;;
20421;SDS011;10370;53.102;18.034;2023-03-01T17:31:34;105.50;;;37.00;;
20421;SDS011;10370;53.102;18.034;2023-03-01T17:36:55;63.23;;;26.37;;
20421;SDS011;10370;53.102;18.034;2023-03-01T17:42:21;65.73;;;24.40;;
20421;SDS011;10370;53.102;18.034;2023-03-01T17:47:45;109.93;;;42.50;;
20421;SDS011;10370;53.102;18.034;2023-03-01T17:53:08;126.20;;;55.07;;
20421;SDS011;10370;53.102;18.034;2023-03-01T17:58:32;133.40;;;53.60;;
20421;SDS011;10370;53.102;18.034;2023-03-01T18:03:57;212.50;;;73.53;;
20421;SDS011;10370;53.102;18.034;2023-03-01T18:09:20;99.77;;;31.53;;
20421;SDS011;10370;53.102;18.034;2023-03-01T18:14:50;90.80;;;29.33;;
20421;SDS011;10370;53.102;18.034;2023-03-01T18:20:26;108.77;;;43.73;;
20421;SDS011;10370;53.102;18.034;2023-03-01T18:25:49;125.33;;;50.20;;
20421;SDS011;10370;53.102;18.034;2023-03-01T18:31:21;217.07;;;75.67;;
20421;SDS011;10370;53.102;18.034;2023-03-01T18:36:47;162.80;;;60.47;;
20421;SDS011;10370;53.102;18.034;2023-03-01T18:42:35;237.03;;;85.17;;
20421;SDS011;10370;53.102;18.034;2023-03-01T18:48:04;242.47;;;84.67;;
20421;SDS011;10370;53.102;18.034;2023-03-01T18:53:26;245.97;;;86.93;;
20421;SDS011;10370;53.102;18.034;2023-03-01T18:58:51;275.97;;;90.33;;
20421;SDS011;10370;53.102;18.034;2023-03-01T19:04:18;206.57;;;66.50;;
20421;SDS011;10370;53.102;18.034;2023-03-01T19:09:39;186.73;;;62.87;;
20421;SDS011;10370;53.102;18.034;2023-03-01T19:15:05;124.37;;;46.60;;
20421;SDS011;10370;53.102;18.034;2023-03-01T19:20:31;208.33;;;72.63;;
20421;SDS011;10370;53.102;18.034;2023-03-01T19:25:58;104.13;;;41.77;;
20421;SDS011;10370;53.102;18.034;2023-03-01T19:31:25;111.87;;;41.67;;
20421;SDS011;10370;53.102;18.034;2023-03-01T19:36:51;119.70;;;43.27;;
20421;SDS011;10370;53.102;18.034;2023-03-01T19:42:16;114.63;;;45.07;;
20421;SDS011;10370;53.102;18.034;2023-03-01T19:47:46;128.17;;;50.60;;
20421;SDS011;10370;53.102;18.034;2023-03-01T19:53:10;129.93;;;49.80;;
20421;SDS011;10370;53.102;18.034;2023-03-01T19:58:39;134.60;;;52.13;;
20421;SDS011;10370;53.102;18.034;2023-03-01T20:04:04;116.63;;;46.70;;
20421;SDS011;10370;53.102;18.034;2023-03-01T20:09:26;138.57;;;49.10;;
20421;SDS011;10370;53.102;18.034;2023-03-01T20:14:53;367.83;;;102.20;;
20421;SDS011;10370;53.102;18.034;2023-03-01T20:20:19;453.63;;;124.57;;
20421;SDS011;10370;53.102;18.034;2023-03-01T20:25:49;242.73;;;78.00;;
20421;SDS011;10370;53.102;18.034;2023-03-01T20:31:36;213.43;;;79.17;;
20421;SDS011;10370;53.102;18.034;2023-03-01T20:37:03;193.17;;;69.90;;
20421;SDS011;10370;53.102;18.034;2023-03-01T20:42:30;206.27;;;73.67;;
20421;SDS011;10370;53.102;18.034;2023-03-01T20:47:58;326.07;;;109.57;;
20421;SDS011;10370;53.102;18.034;2023-03-01T20:53:23;244.37;;;78.17;;
20421;SDS011;10370;53.102;18.034;2023-03-01T21:04:29;308.37;;;91.40;;
20421;SDS011;10370;53.102;18.034;2023-03-01T21:09:57;174.43;;;59.17;;
20421;SDS011;10370;53.102;18.034;2023-03-01T21:15:23;148.97;;;51.93;;
20421;SDS011;10370;53.102;18.034;2023-03-01T21:20:49;181.43;;;58.67;;
20421;SDS011;10370;53.102;18.034;2023-03-01T21:26:14;214.33;;;67.77;;
20421;SDS011;10370;53.102;18.034;2023-03-01T21:31:41;264.60;;;85.93;;
20421;SDS011;10370;53.102;18.034;2023-03-01T21:37:07;291.43;;;93.43;;
20421;SDS011;10370;53.102;18.034;2023-03-01T21:42:32;297.07;;;90.37;;
20421;SDS011;10370;53.102;18.034;2023-03-01T21:48:01;797.90;;;196.20;;
20421;SDS011;10370;53.102;18.034;2023-03-01T21:53:31;477.90;;;115.73;;
20421;SDS011;10370;53.102;18.034;2023-03-01T21:58:56;336.07;;;88.33;;
20421;SDS011;10370;53.102;18.034;2023-03-01T22:04:27;321.57;;;88.20;;
20421;SDS011;10370;53.102;18.034;2023-03-01T22:10:01;437.63;;;112.03;;
20421;SDS011;10370;53.102;18.034;2023-03-01T22:15:26;514.17;;;129.80;;
20421;SDS011;10370;53.102;18.034;2023-03-01T22:20:51;396.10;;;104.17;;
20421;SDS011;10370;53.102;18.034;2023-03-01T22:26:36;151.87;;;49.53;;
20421;SDS011;10370;53.102;18.034;2023-03-01T22:32:02;132.70;;;43.53;;
20421;SDS011;10370;53.102;18.034;2023-03-01T22:37:31;148.60;;;46.80;;
20421;SDS011;10370;53.102;18.034;2023-03-01T22:42:57;153.50;;;48.83;;
20421;SDS011;10370;53.102;18.034;2023-03-01T22:48:25;222.90;;;63.50;;
20421;SDS011;10370;53.102;18.034;2023-03-01T22:54:31;240.53;;;67.50;;
20421;SDS011;10370;53.102;18.034;2023-03-01T22:59:56;287.83;;;77.37;;
20421;SDS011;10370;53.102;18.034;2023-03-01T23:05:53;225.40;;;65.97;;
20421;SDS011;10370;53.102;18.034;2023-03-01T23:11:23;355.87;;;95.30;;
20421;SDS011;10370;53.102;18.034;2023-03-01T23:16:48;320.63;;;95.53;;
20421;SDS011;10370;53.102;18.034;2023-03-01T23:22:14;287.10;;;85.10;;
20421;SDS011;10370;53.102;18.034;2023-03-01T23:27:41;234.47;;;79.47;;
20421;SDS011;10370;53.102;18.034;2023-03-01T23:33:06;247.07;;;81.90;;
20421;SDS011;10370;53.102;18.034;2023-03-01T23:38:31;250.47;;;80.67;;
20421;SDS011;10370;53.102;18.034;2023-03-01T23:43:58;309.03;;;92.27;;
20421;SDS011;10370;53.102;18.034;2023-03-01T23:49:24;269.43;;;82.30;;
20421;SDS011;10370;53.102;18.034;2023-03-01T23:54:50;193.50;;;63.00;;
